Eagle Harbor, New York
Current Conditions -  °F | °C
As of 4:54 AM on Thursday 18 Dec 2014 (Local Time) from KROC Reporting Station
Overcast Overcast  
Wind Chill: -6°   Ceiling: 3100
Heat Index:   Visibility: 10mi
Dew Point: -4°   Wind: 17mph
Humidity: 75%   Direction: 270°W
Pressure: 30.01"   Gusts: 26mph
Location:  43.2353°N, 78.214°W
Report Text: KROC 180954Z 27015G23KT 10SM SCT019 OVC031 00/M04 A3001 RMK AO2 SLP170 T00001039
Loading
Personal Weather Stations






























Interactive Weather Map New forecast layout! Learn more

10-Day Weather Forecast

Advertisements
Track Severe Weather on mobile